createdAt,value
2022-12-19T00:04:38.373Z,98740.81
2022-12-19T00:09:40.040Z,98718.81
2022-12-19T00:14:41.626Z,98724.97
2022-12-19T00:19:43.220Z,98713.06
2022-12-19T00:24:44.829Z,98724.88
2022-12-19T00:29:46.534Z,98713.06
2022-12-19T00:34:48.219Z,98716.97
2022-12-19T00:39:49.834Z,98701.09
2022-12-19T00:44:51.415Z,98686.41
2022-12-19T00:49:53.035Z,98685.06
2022-12-19T00:54:56.538Z,98688.59
2022-12-19T00:59:58.128Z,98671.03
2022-12-19T01:05:01.540Z,98671.94
2022-12-19T01:10:04.415Z,98669.97
2022-12-19T01:15:06.484Z,98661.19
2022-12-19T01:20:11.372Z,98667.06
2022-12-19T01:25:14.170Z,98658.72
2022-12-19T01:30:16.158Z,98663.59
2022-12-19T01:35:21.818Z,98652.91
2022-12-19T01:40:24.097Z,98649.91
2022-12-19T01:45:33.456Z,98648.06
2022-12-19T01:50:56.247Z,98658.06
2022-12-19T01:56:09.844Z,98650.69
2022-12-19T02:01:12.152Z,98647.59
2022-12-19T02:06:16.404Z,98642.81
2022-12-19T02:11:18.605Z,98634.34
2022-12-19T02:16:47.218Z,98640.97
2022-12-19T02:21:57.245Z,98640.16
2022-12-19T02:27:11.613Z,98642.53
2022-12-19T02:32:18.716Z,98643.78
2022-12-19T02:37:27.145Z,98660.44
2022-12-19T02:42:38.280Z,98665.56
2022-12-19T02:47:40.669Z,98653.13
2022-12-19T02:52:45.386Z,98665.09
2022-12-19T02:57:46.936Z,98672.53
2022-12-19T03:03:07.115Z,98675.66
2022-12-19T03:08:47.164Z,98671.38
2022-12-19T03:14:12.562Z,98680.50
2022-12-19T03:19:16.207Z,98687.78
2022-12-19T03:24:18.914Z,98686.41
2022-12-19T03:29:45.476Z,98686.81
2022-12-19T03:35:04.375Z,98679.81
2022-12-19T03:40:12.736Z,98673.88
2022-12-19T03:45:21.480Z,98666.69
2022-12-19T03:50:27.145Z,98656.84
2022-12-19T03:55:36.535Z,98667.50
2022-12-19T04:00:42.398Z,98668.47
2022-12-19T04:05:46.945Z,98658.34
2022-12-19T04:10:53.084Z,98650.72
2022-12-19T04:16:06.812Z,98643.16
2022-12-19T04:21:15.275Z,98645.69
2022-12-19T04:26:20.050Z,98646.53
2022-12-19T04:31:23.200Z,98641.50
2022-12-19T04:36:26.404Z,98658.28
2022-12-19T04:41:28.063Z,98642.38
2022-12-19T04:46:29.675Z,98640.06
2022-12-19T04:51:31.436Z,98646.84
2022-12-19T04:56:33.071Z,98647.13
2022-12-19T05:01:34.836Z,98628.91
2022-12-19T05:06:36.717Z,98632.13
2022-12-19T05:11:38.873Z,98625.41
2022-12-19T05:16:40.438Z,98627.31
2022-12-19T05:21:42.359Z,98629.03
2022-12-19T05:26:44.009Z,98613.31
2022-12-19T05:31:45.738Z,98626.06
2022-12-19T05:36:48.500Z,98622.94
2022-12-19T05:41:50.094Z,98634.00
2022-12-19T05:46:51.812Z,98625.03
2022-12-19T05:51:53.417Z,98628.03
2022-12-19T05:56:55.037Z,98640.03
2022-12-19T06:01:56.748Z,98634.78
2022-12-19T06:06:58.862Z,98634.63
2022-12-19T06:12:00.427Z,98629.50
2022-12-19T06:17:02.001Z,98629.75
2022-12-19T06:22:03.606Z,98627.88
2022-12-19T06:27:05.348Z,98624.66
2022-12-19T06:32:07.030Z,98634.88
2022-12-19T06:37:11.998Z,98635.97
2022-12-19T06:42:25.702Z,98619.91
2022-12-19T06:47:27.355Z,98629.72
2022-12-19T06:52:28.956Z,98616.97
2022-12-19T06:57:30.615Z,98629.31
2022-12-19T07:02:32.767Z,98620.81
2022-12-19T07:07:34.577Z,98629.00
2022-12-19T07:12:36.443Z,98625.94
2022-12-19T07:17:38.574Z,98625.59
2022-12-19T07:22:41.420Z,98617.28
2022-12-19T07:27:43.389Z,98605.09
2022-12-19T07:32:44.991Z,98613.25
2022-12-19T07:37:46.598Z,98604.94
2022-12-19T07:42:48.188Z,98599.63
2022-12-19T07:47:50.475Z,98604.56
2022-12-19T07:52:52.091Z,98600.22
2022-12-19T07:57:55.431Z,98602.69
2022-12-19T08:02:59.486Z,98602.94
2022-12-19T08:08:01.276Z,98611.13
2022-12-19T08:13:03.045Z,98599.59
2022-12-19T08:18:04.643Z,98597.03
2022-12-19T08:23:06.253Z,98592.47
2022-12-19T08:28:08.080Z,98576.28
2022-12-19T08:33:09.685Z,98579.00
2022-12-19T08:38:11.304Z,98569.06
2022-12-19T08:43:12.938Z,98572.25
2022-12-19T08:48:14.524Z,98572.78
2022-12-19T08:53:20.140Z,98572.81
2022-12-19T08:58:25.647Z,98569.22
2022-12-19T09:03:29.523Z,98572.16
2022-12-19T09:08:45.266Z,98567.97
2022-12-19T09:13:48.058Z,98563.66
2022-12-19T09:18:52.083Z,98561.31
2022-12-19T09:23:56.155Z,98573.09
2022-12-19T09:29:00.821Z,98567.13
2022-12-19T09:34:04.488Z,98560.19
2022-12-19T09:39:06.113Z,98567.28
2022-12-19T09:44:46.767Z,98567.25
2022-12-19T09:49:49.189Z,98559.66
2022-12-19T09:55:06.213Z,98542.13
2022-12-19T10:00:14.924Z,98554.13
2022-12-19T10:06:15.529Z,98549.88
2022-12-19T10:12:36.291Z,98550.94
2022-12-19T10:16:35.655Z,98540.53
2022-12-19T10:22:16.789Z,98537.47
2022-12-19T10:27:28.968Z,98534.88
2022-12-19T10:33:11.755Z,98531.00
2022-12-19T10:38:34.090Z,98516.16
2022-12-19T10:43:51.721Z,98519.75
2022-12-19T10:48:53.542Z,98519.53
2022-12-19T10:53:57.384Z,98503.03
2022-12-19T10:59:00.436Z,98497.75
2022-12-19T11:04:11.731Z,98492.00
2022-12-19T11:09:29.364Z,98483.22
2022-12-19T11:18:21.331Z,98469.31
2022-12-19T11:29:36.449Z,98472.47
2022-12-19T11:30:43.171Z,98464.16
2022-12-19T11:36:05.059Z,98462.97
2022-12-19T11:41:14.965Z,98456.31
2022-12-19T11:46:43.694Z,98456.78
2022-12-19T11:51:57.611Z,98452.81
2022-12-19T11:56:59.702Z,98446.84
2022-12-19T12:02:42.743Z,98439.97
2022-12-19T12:10:31.979Z,98437.84
2022-12-19T12:17:46.652Z,98437.50
2022-12-19T12:31:04.352Z,98441.16
2022-12-19T12:32:02.060Z,98423.94
2022-12-19T12:32:04.537Z,98423.72
2022-12-19T12:41:53.871Z,98411.16
2022-12-19T12:47:12.828Z,98396.47
2022-12-19T12:52:19.521Z,98394.34
2022-12-19T12:57:27.239Z,98389.81
2022-12-19T13:02:33.337Z,98380.78
2022-12-19T13:07:50.322Z,98372.25
2022-12-19T13:13:02.833Z,98371.91
2022-12-19T13:18:32.111Z,98377.72
2022-12-19T13:23:43.102Z,98376.09
2022-12-19T13:28:44.723Z,98381.72
2022-12-19T13:33:54.724Z,98365.78
2022-12-19T13:39:57.714Z,98356.84
2022-12-19T13:44:22.456Z,98365.22
2022-12-19T13:49:33.336Z,98355.41
2022-12-19T13:54:45.797Z,98354.53
2022-12-19T13:59:54.342Z,98355.09
2022-12-19T14:05:01.868Z,98354.19
2022-12-19T14:11:31.742Z,98360.13
2022-12-19T14:15:52.361Z,98360.13
2022-12-19T14:22:11.421Z,98363.34
2022-12-19T14:28:21.001Z,98356.84
2022-12-19T14:33:39.102Z,98359.47
2022-12-19T14:38:13.012Z,98361.03
2022-12-19T14:43:58.918Z,98370.16
2022-12-19T14:54:14.924Z,98371.13
2022-12-19T14:59:48.642Z,98380.16
2022-12-19T15:05:02.484Z,98379.31
2022-12-19T15:10:59.070Z,98378.47
2022-12-19T15:15:48.665Z,98368.84
2022-12-19T15:20:51.884Z,98366.03
2022-12-19T15:26:04.693Z,98365.88
2022-12-19T15:31:18.347Z,98349.38
2022-12-19T15:36:20.038Z,98349.72
2022-12-19T15:41:24.190Z,98343.53
2022-12-19T15:46:30.395Z,98350.31
2022-12-19T15:51:32.167Z,98348.13
2022-12-19T15:56:37.937Z,98358.28
2022-12-19T16:01:39.580Z,98336.81
2022-12-19T16:06:41.264Z,98338.69
2022-12-19T16:11:42.888Z,98341.56
2022-12-19T16:16:49.979Z,98333.78
2022-12-19T16:21:52.082Z,98343.34
2022-12-19T16:26:56.730Z,98336.72
2022-12-19T16:32:00.414Z,98344.78
2022-12-19T16:37:02.123Z,98333.41
2022-12-19T16:42:05.040Z,98329.44
2022-12-19T16:47:12.608Z,98324.44
2022-12-19T16:52:14.269Z,98323.41
2022-12-19T16:57:19.837Z,98323.97
2022-12-19T17:02:45.346Z,98316.88
2022-12-19T17:07:47.519Z,98324.38
2022-12-19T17:12:49.455Z,98322.84
2022-12-19T17:17:53.204Z,98321.09
2022-12-19T17:22:54.822Z,98315.06
2022-12-19T17:27:56.590Z,98309.31
2022-12-19T17:32:58.198Z,98318.22
2022-12-19T17:37:59.808Z,98332.28
2022-12-19T17:43:01.718Z,98338.16
2022-12-19T17:48:15.720Z,98337.56
2022-12-19T17:53:17.331Z,98351.41
2022-12-19T17:58:18.955Z,98343.97
2022-12-19T18:03:23.913Z,98350.50
2022-12-19T18:08:30.183Z,98350.84
2022-12-19T18:13:32.248Z,98340.47
2022-12-19T18:18:35.613Z,98346.00
2022-12-19T18:23:37.221Z,98340.59
2022-12-19T18:28:39.940Z,98319.78
2022-12-19T18:33:45.365Z,98309.16
2022-12-19T18:38:48.700Z,98293.94
2022-12-19T18:43:50.381Z,98302.66
2022-12-19T18:48:52.131Z,98319.63
2022-12-19T18:53:53.781Z,98323.31
2022-12-19T18:58:55.403Z,98320.72
2022-12-19T19:03:59.239Z,98322.47
2022-12-19T19:09:01.013Z,98311.88
2022-12-19T19:14:21.117Z,98313.13
2022-12-19T19:19:22.789Z,98323.75
2022-12-19T19:24:24.497Z,98323.63
2022-12-19T19:29:26.085Z,98310.09
2022-12-19T19:34:31.519Z,98304.00
2022-12-19T19:39:34.460Z,98300.53
2022-12-19T19:44:36.098Z,98273.78
2022-12-19T19:49:37.711Z,98267.28
2022-12-19T19:54:39.322Z,98260.09
2022-12-19T19:59:40.976Z,98253.69
2022-12-19T20:04:42.632Z,98253.50
2022-12-19T20:09:44.369Z,98246.69
2022-12-19T20:14:47.122Z,98242.41
2022-12-19T20:19:48.706Z,98240.41
2022-12-19T20:24:50.309Z,98251.78
2022-12-19T20:29:51.955Z,98247.16
2022-12-19T20:34:53.551Z,98243.97
2022-12-19T20:39:55.133Z,98234.25
2022-12-19T20:44:56.726Z,98243.97
2022-12-19T20:49:58.504Z,98233.59
2022-12-19T20:55:00.116Z,98235.47
2022-12-19T21:00:02.083Z,98224.75
2022-12-19T21:05:03.979Z,98235.81
2022-12-19T21:10:06.371Z,98229.47
2022-12-19T21:15:08.125Z,98239.09
2022-12-19T21:20:10.575Z,98242.78
2022-12-19T21:25:12.213Z,98250.16
2022-12-19T21:30:13.937Z,98247.19
2022-12-19T21:35:15.627Z,98250.03
2022-12-19T21:40:18.573Z,98252.69
2022-12-19T21:45:20.198Z,98237.94
2022-12-19T21:50:21.771Z,98245.22
2022-12-19T21:55:23.332Z,98221.38
2022-12-19T22:00:25.036Z,98213.16
2022-12-19T22:05:26.708Z,98224.03
2022-12-19T22:10:28.276Z,98236.00
2022-12-19T22:15:29.881Z,98245.25
2022-12-19T22:20:31.524Z,98271.16
2022-12-19T22:25:33.106Z,98272.25
2022-12-19T22:30:35.990Z,98293.31
2022-12-19T22:35:37.819Z,98294.91
2022-12-19T22:40:39.642Z,98299.19
2022-12-19T22:45:41.863Z,98313.44
2022-12-19T22:50:47.118Z,98315.59
2022-12-19T22:55:48.914Z,98315.91
2022-12-19T23:00:50.760Z,98302.88
2022-12-19T23:05:52.563Z,98298.63
2022-12-19T23:10:54.459Z,98295.34
2022-12-19T23:15:57.701Z,98299.13
2022-12-19T23:21:09.619Z,98280.72
2022-12-19T23:26:17.309Z,98289.78
2022-12-19T23:31:19.715Z,98288.16
2022-12-19T23:36:45.300Z,98281.19
2022-12-19T23:41:44.294Z,98267.63
2022-12-19T23:46:46.317Z,98275.38
2022-12-19T23:51:48.139Z,98263.09
2022-12-19T23:56:50.001Z,98267.97
